sensor_id;sensor_type;location;lat;lon;timestamp;P1;durP1;ratioP1;P2;durP2;ratioP2
69991;SDS011;57332;51.320;-0.580;2023-08-06T00:00:43;5.10;;;1.40;;
69991;SDS011;57332;51.320;-0.580;2023-08-06T00:03:10;2.72;;;1.70;;
69991;SDS011;57332;51.320;-0.580;2023-08-06T00:05:37;3.42;;;1.50;;
69991;SDS011;57332;51.320;-0.580;2023-08-06T00:08:04;2.88;;;1.55;;
69991;SDS011;57332;51.320;-0.580;2023-08-06T00:10:31;2.90;;;1.73;;
69991;SDS011;57332;51.320;-0.580;2023-08-06T00:12:57;2.97;;;1.75;;
69991;SDS011;57332;51.320;-0.580;2023-08-06T00:15:24;3.63;;;1.90;;
69991;SDS011;57332;51.320;-0.580;2023-08-06T00:17:51;5.32;;;1.60;;
69991;SDS011;57332;51.320;-0.580;2023-08-06T00:20:18;2.70;;;1.52;;
69991;SDS011;57332;51.320;-0.580;2023-08-06T00:22:45;3.67;;;1.90;;
69991;SDS011;57332;51.320;-0.580;2023-08-06T00:25:12;4.82;;;1.80;;
69991;SDS011;57332;51.320;-0.580;2023-08-06T00:27:39;2.80;;;1.65;;
69991;SDS011;57332;51.320;-0.580;2023-08-06T00:30:06;3.85;;;1.70;;
69991;SDS011;57332;51.320;-0.580;2023-08-06T00:32:33;3.83;;;1.80;;
69991;SDS011;57332;51.320;-0.580;2023-08-06T00:35:00;3.30;;;1.60;;
69991;SDS011;57332;51.320;-0.580;2023-08-06T00:37:27;4.88;;;1.90;;
69991;SDS011;57332;51.320;-0.580;2023-08-06T00:39:54;5.43;;;1.50;;
69991;SDS011;57332;51.320;-0.580;2023-08-06T00:42:20;3.90;;;1.73;;
69991;SDS011;57332;51.320;-0.580;2023-08-06T00:44:49;3.38;;;1.75;;
69991;SDS011;57332;51.320;-0.580;2023-08-06T00:47:15;2.88;;;1.80;;
69991;SDS011;57332;51.320;-0.580;2023-08-06T00:49:43;2.95;;;1.70;;
69991;SDS011;57332;51.320;-0.580;2023-08-06T00:52:10;4.00;;;1.50;;
69991;SDS011;57332;51.320;-0.580;2023-08-06T00:54:37;3.72;;;1.50;;
69991;SDS011;57332;51.320;-0.580;2023-08-06T00:57:04;5.10;;;1.90;;
69991;SDS011;57332;51.320;-0.580;2023-08-06T00:59:31;3.40;;;1.42;;
69991;SDS011;57332;51.320;-0.580;2023-08-06T01:01:59;3.65;;;1.30;;
69991;SDS011;57332;51.320;-0.580;2023-08-06T01:04:26;3.30;;;1.95;;
69991;SDS011;57332;51.320;-0.580;2023-08-06T01:07:00;2.70;;;1.60;;
69991;SDS011;57332;51.320;-0.580;2023-08-06T01:12:06;2.10;;;1.20;;
69991;SDS011;57332;51.320;-0.580;2023-08-06T01:14:52;2.53;;;1.40;;
69991;SDS011;57332;51.320;-0.580;2023-08-06T01:17:20;4.80;;;1.92;;
69991;SDS011;57332;51.320;-0.580;2023-08-06T01:19:47;3.65;;;1.30;;
69991;SDS011;57332;51.320;-0.580;2023-08-06T01:22:14;3.55;;;1.23;;
69991;SDS011;57332;51.320;-0.580;2023-08-06T01:24:41;3.03;;;1.50;;
69991;SDS011;57332;51.320;-0.580;2023-08-06T01:27:14;3.53;;;1.38;;
69991;SDS011;57332;51.320;-0.580;2023-08-06T01:32:10;4.18;;;1.45;;
69991;SDS011;57332;51.320;-0.580;2023-08-06T01:34:39;2.63;;;1.70;;
69991;SDS011;57332;51.320;-0.580;2023-08-06T01:37:06;4.35;;;1.60;;
69991;SDS011;57332;51.320;-0.580;2023-08-06T01:39:33;3.40;;;1.70;;
69991;SDS011;57332;51.320;-0.580;2023-08-06T01:42:00;3.08;;;1.40;;
69991;SDS011;57332;51.320;-0.580;2023-08-06T01:44:27;2.75;;;1.50;;
69991;SDS011;57332;51.320;-0.580;2023-08-06T01:46:54;3.80;;;1.58;;
69991;SDS011;57332;51.320;-0.580;2023-08-06T01:49:21;2.92;;;1.50;;
69991;SDS011;57332;51.320;-0.580;2023-08-06T01:51:48;3.15;;;1.42;;
69991;SDS011;57332;51.320;-0.580;2023-08-06T01:54:15;4.63;;;1.70;;
69991;SDS011;57332;51.320;-0.580;2023-08-06T01:56:42;5.25;;;1.70;;
69991;SDS011;57332;51.320;-0.580;2023-08-06T01:59:09;2.92;;;1.70;;
69991;SDS011;57332;51.320;-0.580;2023-08-06T02:01:36;3.83;;;1.60;;
69991;SDS011;57332;51.320;-0.580;2023-08-06T02:04:03;3.63;;;1.45;;
69991;SDS011;57332;51.320;-0.580;2023-08-06T02:06:30;3.25;;;1.67;;
69991;SDS011;57332;51.320;-0.580;2023-08-06T02:08:57;3.85;;;1.80;;
69991;SDS011;57332;51.320;-0.580;2023-08-06T02:11:24;4.38;;;1.77;;
69991;SDS011;57332;51.320;-0.580;2023-08-06T02:13:51;6.30;;;1.60;;
69991;SDS011;57332;51.320;-0.580;2023-08-06T02:16:17;3.92;;;1.58;;
69991;SDS011;57332;51.320;-0.580;2023-08-06T02:18:44;5.10;;;1.63;;
69991;SDS011;57332;51.320;-0.580;2023-08-06T02:21:11;3.55;;;1.70;;
69991;SDS011;57332;51.320;-0.580;2023-08-06T02:23:38;4.80;;;1.85;;
69991;SDS011;57332;51.320;-0.580;2023-08-06T02:26:05;3.10;;;1.50;;
69991;SDS011;57332;51.320;-0.580;2023-08-06T02:28:32;4.13;;;1.70;;
69991;SDS011;57332;51.320;-0.580;2023-08-06T02:30:59;3.90;;;1.70;;
69991;SDS011;57332;51.320;-0.580;2023-08-06T02:33:26;3.72;;;1.45;;
69991;SDS011;57332;51.320;-0.580;2023-08-06T02:35:59;5.32;;;1.65;;
69991;SDS011;57332;51.320;-0.580;2023-08-06T02:38:27;4.20;;;1.40;;
69991;SDS011;57332;51.320;-0.580;2023-08-06T02:40:54;4.22;;;1.60;;
69991;SDS011;57332;51.320;-0.580;2023-08-06T02:43:21;4.15;;;1.60;;
69991;SDS011;57332;51.320;-0.580;2023-08-06T02:45:48;4.88;;;1.88;;
69991;SDS011;57332;51.320;-0.580;2023-08-06T02:48:15;4.03;;;1.60;;
69991;SDS011;57332;51.320;-0.580;2023-08-06T02:50:42;3.60;;;1.80;;
69991;SDS011;57332;51.320;-0.580;2023-08-06T02:53:09;4.53;;;1.67;;
69991;SDS011;57332;51.320;-0.580;2023-08-06T02:55:36;5.15;;;2.08;;
69991;SDS011;57332;51.320;-0.580;2023-08-06T02:58:02;3.08;;;1.40;;
69991;SDS011;57332;51.320;-0.580;2023-08-06T03:00:29;3.92;;;1.80;;
69991;SDS011;57332;51.320;-0.580;2023-08-06T03:02:56;3.95;;;1.80;;
69991;SDS011;57332;51.320;-0.580;2023-08-06T03:05:23;3.90;;;1.80;;
69991;SDS011;57332;51.320;-0.580;2023-08-06T03:07:50;4.63;;;1.63;;
69991;SDS011;57332;51.320;-0.580;2023-08-06T03:10:17;3.38;;;1.58;;
69991;SDS011;57332;51.320;-0.580;2023-08-06T03:12:44;5.03;;;1.75;;
69991;SDS011;57332;51.320;-0.580;2023-08-06T03:15:11;4.18;;;1.70;;
69991;SDS011;57332;51.320;-0.580;2023-08-06T03:17:38;3.40;;;1.50;;
69991;SDS011;57332;51.320;-0.580;2023-08-06T03:20:05;3.42;;;1.83;;
69991;SDS011;57332;51.320;-0.580;2023-08-06T03:22:32;3.70;;;1.75;;
69991;SDS011;57332;51.320;-0.580;2023-08-06T03:24:59;5.07;;;1.70;;
69991;SDS011;57332;51.320;-0.580;2023-08-06T03:27:26;3.15;;;1.70;;
69991;SDS011;57332;51.320;-0.580;2023-08-06T03:29:53;5.28;;;1.77;;
69991;SDS011;57332;51.320;-0.580;2023-08-06T03:32:20;3.22;;;1.80;;
69991;SDS011;57332;51.320;-0.580;2023-08-06T03:34:47;3.35;;;1.77;;
69991;SDS011;57332;51.320;-0.580;2023-08-06T03:37:14;5.90;;;1.98;;
69991;SDS011;57332;51.320;-0.580;2023-08-06T03:39:40;3.75;;;1.70;;
69991;SDS011;57332;51.320;-0.580;2023-08-06T03:42:07;6.45;;;1.80;;
69991;SDS011;57332;51.320;-0.580;2023-08-06T03:44:34;4.30;;;1.80;;
69991;SDS011;57332;51.320;-0.580;2023-08-06T03:47:01;4.95;;;1.83;;
69991;SDS011;57332;51.320;-0.580;2023-08-06T03:49:28;4.22;;;2.08;;
69991;SDS011;57332;51.320;-0.580;2023-08-06T03:51:55;3.63;;;1.75;;
69991;SDS011;57332;51.320;-0.580;2023-08-06T03:54:22;4.55;;;1.77;;
69991;SDS011;57332;51.320;-0.580;2023-08-06T03:56:48;4.15;;;1.63;;
69991;SDS011;57332;51.320;-0.580;2023-08-06T03:59:15;3.58;;;1.83;;
69991;SDS011;57332;51.320;-0.580;2023-08-06T04:01:42;4.15;;;1.98;;
69991;SDS011;57332;51.320;-0.580;2023-08-06T04:04:09;5.00;;;2.10;;
69991;SDS011;57332;51.320;-0.580;2023-08-06T04:06:36;4.07;;;1.95;;
69991;SDS011;57332;51.320;-0.580;2023-08-06T04:09:03;4.05;;;1.95;;
69991;SDS011;57332;51.320;-0.580;2023-08-06T04:11:30;3.10;;;1.90;;
69991;SDS011;57332;51.320;-0.580;2023-08-06T04:13:56;5.97;;;1.85;;
69991;SDS011;57332;51.320;-0.580;2023-08-06T04:16:24;6.47;;;2.22;;
69991;SDS011;57332;51.320;-0.580;2023-08-06T04:18:53;4.18;;;2.00;;
69991;SDS011;57332;51.320;-0.580;2023-08-06T04:21:22;3.60;;;1.90;;
69991;SDS011;57332;51.320;-0.580;2023-08-06T04:23:49;4.20;;;1.60;;
69991;SDS011;57332;51.320;-0.580;2023-08-06T04:26:15;4.22;;;1.67;;
69991;SDS011;57332;51.320;-0.580;2023-08-06T04:28:42;4.47;;;1.60;;
69991;SDS011;57332;51.320;-0.580;2023-08-06T04:31:09;4.72;;;2.05;;
69991;SDS011;57332;51.320;-0.580;2023-08-06T04:33:36;3.00;;;1.60;;
69991;SDS011;57332;51.320;-0.580;2023-08-06T04:36:03;7.22;;;1.80;;
69991;SDS011;57332;51.320;-0.580;2023-08-06T04:38:31;5.05;;;1.95;;
69991;SDS011;57332;51.320;-0.580;2023-08-06T04:40:58;7.78;;;1.90;;
69991;SDS011;57332;51.320;-0.580;2023-08-06T04:43:24;4.43;;;1.73;;
69991;SDS011;57332;51.320;-0.580;2023-08-06T04:45:53;3.83;;;2.00;;
69991;SDS011;57332;51.320;-0.580;2023-08-06T04:48:20;4.32;;;1.75;;
69991;SDS011;57332;51.320;-0.580;2023-08-06T04:50:47;6.75;;;1.90;;
69991;SDS011;57332;51.320;-0.580;2023-08-06T04:53:15;4.60;;;2.03;;
69991;SDS011;57332;51.320;-0.580;2023-08-06T04:55:42;4.57;;;1.80;;
69991;SDS011;57332;51.320;-0.580;2023-08-06T04:58:09;4.57;;;1.52;;
69991;SDS011;57332;51.320;-0.580;2023-08-06T05:00:36;4.70;;;1.60;;
69991;SDS011;57332;51.320;-0.580;2023-08-06T05:03:03;3.67;;;1.75;;
69991;SDS011;57332;51.320;-0.580;2023-08-06T05:05:30;3.83;;;2.22;;
69991;SDS011;57332;51.320;-0.580;2023-08-06T05:07:57;2.83;;;1.60;;
69991;SDS011;57332;51.320;-0.580;2023-08-06T05:10:24;4.53;;;1.75;;
69991;SDS011;57332;51.320;-0.580;2023-08-06T05:12:52;3.83;;;1.95;;
69991;SDS011;57332;51.320;-0.580;2023-08-06T05:15:19;2.80;;;1.65;;
69991;SDS011;57332;51.320;-0.580;2023-08-06T05:17:45;4.00;;;1.40;;
69991;SDS011;57332;51.320;-0.580;2023-08-06T05:20:13;5.30;;;2.00;;
69991;SDS011;57332;51.320;-0.580;2023-08-06T05:22:39;3.72;;;1.77;;
69991;SDS011;57332;51.320;-0.580;2023-08-06T05:25:06;4.38;;;1.92;;
69991;SDS011;57332;51.320;-0.580;2023-08-06T05:27:34;4.90;;;1.98;;
69991;SDS011;57332;51.320;-0.580;2023-08-06T05:30:01;5.20;;;1.70;;
69991;SDS011;57332;51.320;-0.580;2023-08-06T05:32:28;3.92;;;1.50;;
69991;SDS011;57332;51.320;-0.580;2023-08-06T05:34:55;6.32;;;2.10;;
69991;SDS011;57332;51.320;-0.580;2023-08-06T05:37:21;4.82;;;1.70;;
69991;SDS011;57332;51.320;-0.580;2023-08-06T05:39:48;4.40;;;1.70;;
69991;SDS011;57332;51.320;-0.580;2023-08-06T05:42:15;3.20;;;1.63;;
69991;SDS011;57332;51.320;-0.580;2023-08-06T05:44:42;4.32;;;1.90;;
69991;SDS011;57332;51.320;-0.580;2023-08-06T05:47:09;3.58;;;1.30;;
69991;SDS011;57332;51.320;-0.580;2023-08-06T05:49:36;4.63;;;1.95;;
69991;SDS011;57332;51.320;-0.580;2023-08-06T05:52:03;3.90;;;1.83;;
69991;SDS011;57332;51.320;-0.580;2023-08-06T05:54:32;3.70;;;1.42;;
69991;SDS011;57332;51.320;-0.580;2023-08-06T05:56:59;2.63;;;1.60;;
69991;SDS011;57332;51.320;-0.580;2023-08-06T05:59:26;5.30;;;1.65;;
69991;SDS011;57332;51.320;-0.580;2023-08-06T06:01:53;3.15;;;1.35;;
69991;SDS011;57332;51.320;-0.580;2023-08-06T06:04:20;3.83;;;1.40;;
69991;SDS011;57332;51.320;-0.580;2023-08-06T06:06:47;3.20;;;1.70;;
69991;SDS011;57332;51.320;-0.580;2023-08-06T06:09:14;4.57;;;1.80;;
69991;SDS011;57332;51.320;-0.580;2023-08-06T06:11:41;3.40;;;1.42;;
69991;SDS011;57332;51.320;-0.580;2023-08-06T06:14:08;3.17;;;1.55;;
69991;SDS011;57332;51.320;-0.580;2023-08-06T06:16:35;3.38;;;1.55;;
69991;SDS011;57332;51.320;-0.580;2023-08-06T06:19:02;2.85;;;1.40;;
69991;SDS011;57332;51.320;-0.580;2023-08-06T06:21:29;3.80;;;1.63;;
69991;SDS011;57332;51.320;-0.580;2023-08-06T06:23:56;3.25;;;1.60;;
69991;SDS011;57332;51.320;-0.580;2023-08-06T06:26:23;3.70;;;1.90;;
69991;SDS011;57332;51.320;-0.580;2023-08-06T06:28:50;2.78;;;1.50;;
69991;SDS011;57332;51.320;-0.580;2023-08-06T06:31:17;5.47;;;1.83;;
69991;SDS011;57332;51.320;-0.580;2023-08-06T06:33:44;4.60;;;2.00;;
69991;SDS011;57332;51.320;-0.580;2023-08-06T06:36:11;3.72;;;1.70;;
69991;SDS011;57332;51.320;-0.580;2023-08-06T06:38:38;3.00;;;1.52;;
69991;SDS011;57332;51.320;-0.580;2023-08-06T06:41:05;3.03;;;1.48;;
69991;SDS011;57332;51.320;-0.580;2023-08-06T06:43:32;5.38;;;1.67;;
69991;SDS011;57332;51.320;-0.580;2023-08-06T06:45:59;4.80;;;1.85;;
69991;SDS011;57332;51.320;-0.580;2023-08-06T06:48:26;4.75;;;1.70;;
69991;SDS011;57332;51.320;-0.580;2023-08-06T06:50:54;4.40;;;1.70;;
69991;SDS011;57332;51.320;-0.580;2023-08-06T06:53:20;5.18;;;1.67;;
69991;SDS011;57332;51.320;-0.580;2023-08-06T06:55:50;3.17;;;1.30;;
69991;SDS011;57332;51.320;-0.580;2023-08-06T06:58:16;3.95;;;1.70;;
69991;SDS011;57332;51.320;-0.580;2023-08-06T07:00:43;3.38;;;1.42;;
69991;SDS011;57332;51.320;-0.580;2023-08-06T07:03:10;2.83;;;1.58;;
69991;SDS011;57332;51.320;-0.580;2023-08-06T07:05:37;4.65;;;1.55;;
69991;SDS011;57332;51.320;-0.580;2023-08-06T07:08:04;4.03;;;1.65;;
69991;SDS011;57332;51.320;-0.580;2023-08-06T07:10:31;4.13;;;1.60;;
69991;SDS011;57332;51.320;-0.580;2023-08-06T07:12:58;3.83;;;1.40;;
69991;SDS011;57332;51.320;-0.580;2023-08-06T07:15:24;5.00;;;1.60;;
69991;SDS011;57332;51.320;-0.580;2023-08-06T07:17:51;2.75;;;1.55;;
69991;SDS011;57332;51.320;-0.580;2023-08-06T07:20:18;3.15;;;1.52;;
69991;SDS011;57332;51.320;-0.580;2023-08-06T07:22:45;4.60;;;1.60;;
69991;SDS011;57332;51.320;-0.580;2023-08-06T07:25:12;4.57;;;1.77;;
69991;SDS011;57332;51.320;-0.580;2023-08-06T07:27:39;3.13;;;1.70;;
69991;SDS011;57332;51.320;-0.580;2023-08-06T07:30:06;4.60;;;1.50;;
69991;SDS011;57332;51.320;-0.580;2023-08-06T07:32:33;2.67;;;1.25;;
69991;SDS011;57332;51.320;-0.580;2023-08-06T07:35:00;3.80;;;1.77;;
69991;SDS011;57332;51.320;-0.580;2023-08-06T07:37:29;3.78;;;1.58;;
69991;SDS011;57332;51.320;-0.580;2023-08-06T07:39:56;3.80;;;1.42;;
69991;SDS011;57332;51.320;-0.580;2023-08-06T07:42:23;2.58;;;1.30;;
69991;SDS011;57332;51.320;-0.580;2023-08-06T07:44:51;3.78;;;1.52;;
69991;SDS011;57332;51.320;-0.580;2023-08-06T07:47:19;2.63;;;1.45;;
69991;SDS011;57332;51.320;-0.580;2023-08-06T07:49:46;3.65;;;1.42;;
69991;SDS011;57332;51.320;-0.580;2023-08-06T07:52:13;3.92;;;1.73;;
69991;SDS011;57332;51.320;-0.580;2023-08-06T07:54:39;4.55;;;1.90;;
69991;SDS011;57332;51.320;-0.580;2023-08-06T07:57:07;5.05;;;1.50;;
69991;SDS011;57332;51.320;-0.580;2023-08-06T07:59:34;3.33;;;1.70;;
69991;SDS011;57332;51.320;-0.580;2023-08-06T08:02:01;5.45;;;1.40;;
69991;SDS011;57332;51.320;-0.580;2023-08-06T08:04:28;3.40;;;1.30;;
69991;SDS011;57332;51.320;-0.580;2023-08-06T08:06:55;2.50;;;1.30;;
69991;SDS011;57332;51.320;-0.580;2023-08-06T08:09:22;3.92;;;1.40;;
69991;SDS011;57332;51.320;-0.580;2023-08-06T08:11:48;3.58;;;1.50;;
69991;SDS011;57332;51.320;-0.580;2023-08-06T08:14:17;3.35;;;1.60;;
69991;SDS011;57332;51.320;-0.580;2023-08-06T08:16:44;3.33;;;1.40;;
69991;SDS011;57332;51.320;-0.580;2023-08-06T08:19:11;3.40;;;1.38;;
69991;SDS011;57332;51.320;-0.580;2023-08-06T08:21:38;2.53;;;1.50;;
69991;SDS011;57332;51.320;-0.580;2023-08-06T08:24:05;2.28;;;1.20;;
69991;SDS011;57332;51.320;-0.580;2023-08-06T08:26:32;3.20;;;1.52;;
69991;SDS011;57332;51.320;-0.580;2023-08-06T08:28:59;3.10;;;1.50;;
69991;SDS011;57332;51.320;-0.580;2023-08-06T08:31:25;4.50;;;1.70;;
69991;SDS011;57332;51.320;-0.580;2023-08-06T08:33:52;2.25;;;1.30;;
69991;SDS011;57332;51.320;-0.580;2023-08-06T08:36:21;4.05;;;1.50;;
69991;SDS011;57332;51.320;-0.580;2023-08-06T08:38:48;4.25;;;1.60;;
69991;SDS011;57332;51.320;-0.580;2023-08-06T08:41:16;2.42;;;1.40;;
69991;SDS011;57332;51.320;-0.580;2023-08-06T08:43:43;2.95;;;1.52;;
69991;SDS011;57332;51.320;-0.580;2023-08-06T08:46:10;2.65;;;1.50;;
69991;SDS011;57332;51.320;-0.580;2023-08-06T08:48:38;2.78;;;1.60;;
69991;SDS011;57332;51.320;-0.580;2023-08-06T08:51:05;4.43;;;1.67;;
69991;SDS011;57332;51.320;-0.580;2023-08-06T08:53:33;2.30;;;1.42;;
69991;SDS011;57332;51.320;-0.580;2023-08-06T08:56:00;2.90;;;1.67;;
69991;SDS011;57332;51.320;-0.580;2023-08-06T08:58:28;4.30;;;1.40;;
69991;SDS011;57332;51.320;-0.580;2023-08-06T09:00:56;3.33;;;1.48;;
69991;SDS011;57332;51.320;-0.580;2023-08-06T09:03:23;4.65;;;1.35;;
69991;SDS011;57332;51.320;-0.580;2023-08-06T09:05:51;3.35;;;1.80;;
69991;SDS011;57332;51.320;-0.580;2023-08-06T09:08:21;3.60;;;1.45;;
69991;SDS011;57332;51.320;-0.580;2023-08-06T09:10:49;3.70;;;1.20;;
69991;SDS011;57332;51.320;-0.580;2023-08-06T09:13:17;2.58;;;1.38;;
69991;SDS011;57332;51.320;-0.580;2023-08-06T09:15:44;4.43;;;1.48;;
69991;SDS011;57332;51.320;-0.580;2023-08-06T09:18:11;4.47;;;1.60;;
69991;SDS011;57332;51.320;-0.580;2023-08-06T09:20:38;2.92;;;1.40;;
69991;SDS011;57332;51.320;-0.580;2023-08-06T09:23:09;5.88;;;1.60;;
69991;SDS011;57332;51.320;-0.580;2023-08-06T09:25:39;3.35;;;1.25;;
69991;SDS011;57332;51.320;-0.580;2023-08-06T09:28:09;2.88;;;1.50;;
69991;SDS011;57332;51.320;-0.580;2023-08-06T09:30:36;3.22;;;2.17;;
69991;SDS011;57332;51.320;-0.580;2023-08-06T09:33:07;3.05;;;1.25;;
69991;SDS011;57332;51.320;-0.580;2023-08-06T09:38:05;4.07;;;1.83;;
69991;SDS011;57332;51.320;-0.580;2023-08-06T09:40:33;4.43;;;1.42;;
69991;SDS011;57332;51.320;-0.580;2023-08-06T09:43:00;3.58;;;2.10;;
69991;SDS011;57332;51.320;-0.580;2023-08-06T09:45:34;3.80;;;1.95;;
69991;SDS011;57332;51.320;-0.580;2023-08-06T09:48:07;3.28;;;1.15;;
69991;SDS011;57332;51.320;-0.580;2023-08-06T09:50:35;3.20;;;1.40;;
69991;SDS011;57332;51.320;-0.580;2023-08-06T09:53:03;2.47;;;1.45;;
69991;SDS011;57332;51.320;-0.580;2023-08-06T09:55:31;3.67;;;1.30;;
69991;SDS011;57332;51.320;-0.580;2023-08-06T09:57:59;5.30;;;1.60;;
69991;SDS011;57332;51.320;-0.580;2023-08-06T10:00:26;3.50;;;1.58;;
69991;SDS011;57332;51.320;-0.580;2023-08-06T10:02:55;3.03;;;2.10;;
69991;SDS011;57332;51.320;-0.580;2023-08-06T10:07:52;2.92;;;1.20;;
69991;SDS011;57332;51.320;-0.580;2023-08-06T10:10:20;2.50;;;1.10;;
69991;SDS011;57332;51.320;-0.580;2023-08-06T10:12:48;3.55;;;1.35;;
69991;SDS011;57332;51.320;-0.580;2023-08-06T10:15:16;2.85;;;1.25;;
69991;SDS011;57332;51.320;-0.580;2023-08-06T10:17:44;3.38;;;1.35;;
69991;SDS011;57332;51.320;-0.580;2023-08-06T10:20:17;2.55;;;1.00;;
69991;SDS011;57332;51.320;-0.580;2023-08-06T10:22:45;2.45;;;1.13;;
69991;SDS011;57332;51.320;-0.580;2023-08-06T10:25:16;2.28;;;1.30;;
69991;SDS011;57332;51.320;-0.580;2023-08-06T10:30:26;2.60;;;1.40;;
69991;SDS011;57332;51.320;-0.580;2023-08-06T10:33:03;4.00;;;1.48;;
69991;SDS011;57332;51.320;-0.580;2023-08-06T10:38:17;3.05;;;1.20;;
69991;SDS011;57332;51.320;-0.580;2023-08-06T10:43:30;2.38;;;0.98;;
69991;SDS011;57332;51.320;-0.580;2023-08-06T10:45:59;3.30;;;1.27;;
69991;SDS011;57332;51.320;-0.580;2023-08-06T10:50:56;2.95;;;1.10;;
69991;SDS011;57332;51.320;-0.580;2023-08-06T10:53:23;3.15;;;1.20;;
69991;SDS011;57332;51.320;-0.580;2023-08-06T10:55:49;2.10;;;1.20;;
69991;SDS011;57332;51.320;-0.580;2023-08-06T10:58:16;3.70;;;1.25;;
69991;SDS011;57332;51.320;-0.580;2023-08-06T11:00:43;2.70;;;1.30;;
69991;SDS011;57332;51.320;-0.580;2023-08-06T11:03:10;1.90;;;1.02;;
69991;SDS011;57332;51.320;-0.580;2023-08-06T11:05:38;3.67;;;1.27;;
69991;SDS011;57332;51.320;-0.580;2023-08-06T11:08:05;3.03;;;1.15;;
69991;SDS011;57332;51.320;-0.580;2023-08-06T11:10:32;3.97;;;1.20;;
69991;SDS011;57332;51.320;-0.580;2023-08-06T11:13:05;3.78;;;1.17;;
69991;SDS011;57332;51.320;-0.580;2023-08-06T11:15:34;3.33;;;1.15;;
69991;SDS011;57332;51.320;-0.580;2023-08-06T11:18:01;2.67;;;1.35;;
69991;SDS011;57332;51.320;-0.580;2023-08-06T11:20:29;1.92;;;1.23;;
69991;SDS011;57332;51.320;-0.580;2023-08-06T11:22:56;1.92;;;1.08;;
69991;SDS011;57332;51.320;-0.580;2023-08-06T11:25:23;2.28;;;1.33;;
69991;SDS011;57332;51.320;-0.580;2023-08-06T11:27:50;2.33;;;1.20;;
69991;SDS011;57332;51.320;-0.580;2023-08-06T11:30:17;4.75;;;1.58;;
69991;SDS011;57332;51.320;-0.580;2023-08-06T11:32:47;4.50;;;2.03;;
69991;SDS011;57332;51.320;-0.580;2023-08-06T11:35:15;3.83;;;2.25;;
69991;SDS011;57332;51.320;-0.580;2023-08-06T11:37:45;2.80;;;1.48;;
69991;SDS011;57332;51.320;-0.580;2023-08-06T11:40:13;5.88;;;3.30;;
69991;SDS011;57332;51.320;-0.580;2023-08-06T11:42:41;6.13;;;3.33;;
69991;SDS011;57332;51.320;-0.580;2023-08-06T11:45:09;5.95;;;2.95;;
69991;SDS011;57332;51.320;-0.580;2023-08-06T11:47:39;4.65;;;2.30;;
69991;SDS011;57332;51.320;-0.580;2023-08-06T11:50:07;2.90;;;1.83;;
69991;SDS011;57332;51.320;-0.580;2023-08-06T11:52:34;2.75;;;1.40;;
69991;SDS011;57332;51.320;-0.580;2023-08-06T11:55:06;3.30;;;1.38;;
69991;SDS011;57332;51.320;-0.580;2023-08-06T11:57:34;2.13;;;1.15;;
69991;SDS011;57332;51.320;-0.580;2023-08-06T12:00:03;1.20;;;0.80;;
69991;SDS011;57332;51.320;-0.580;2023-08-06T12:02:31;2.10;;;1.17;;
69991;SDS011;57332;51.320;-0.580;2023-08-06T12:05:04;4.80;;;2.65;;
69991;SDS011;57332;51.320;-0.580;2023-08-06T12:07:36;4.10;;;2.55;;
69991;SDS011;57332;51.320;-0.580;2023-08-06T12:10:04;6.55;;;2.95;;
69991;SDS011;57332;51.320;-0.580;2023-08-06T12:12:31;5.32;;;2.75;;
69991;SDS011;57332;51.320;-0.580;2023-08-06T12:14:58;4.82;;;2.10;;
69991;SDS011;57332;51.320;-0.580;2023-08-06T12:17:25;1.92;;;1.30;;
69991;SDS011;57332;51.320;-0.580;2023-08-06T12:19:52;3.17;;;1.50;;
69991;SDS011;57332;51.320;-0.580;2023-08-06T12:22:19;4.32;;;2.15;;
69991;SDS011;57332;51.320;-0.580;2023-08-06T12:24:49;4.18;;;2.42;;
69991;SDS011;57332;51.320;-0.580;2023-08-06T12:27:17;3.90;;;2.22;;
69991;SDS011;57332;51.320;-0.580;2023-08-06T12:29:44;4.63;;;2.50;;
69991;SDS011;57332;51.320;-0.580;2023-08-06T12:32:11;3.95;;;2.65;;
69991;SDS011;57332;51.320;-0.580;2023-08-06T12:34:39;4.47;;;3.28;;
69991;SDS011;57332;51.320;-0.580;2023-08-06T12:37:18;4.88;;;2.25;;
69991;SDS011;57332;51.320;-0.580;2023-08-06T12:39:45;3.83;;;1.90;;
69991;SDS011;57332;51.320;-0.580;2023-08-06T12:42:12;3.10;;;1.40;;
69991;SDS011;57332;51.320;-0.580;2023-08-06T12:44:39;3.03;;;1.77;;
69991;SDS011;57332;51.320;-0.580;2023-08-06T12:47:07;4.85;;;2.28;;
69991;SDS011;57332;51.320;-0.580;2023-08-06T12:49:34;7.05;;;4.30;;
69991;SDS011;57332;51.320;-0.580;2023-08-06T12:52:01;8.25;;;5.50;;
69991;SDS011;57332;51.320;-0.580;2023-08-06T12:54:28;3.55;;;1.50;;
69991;SDS011;57332;51.320;-0.580;2023-08-06T12:56:56;2.88;;;1.50;;
69991;SDS011;57332;51.320;-0.580;2023-08-06T12:59:23;2.85;;;1.70;;
69991;SDS011;57332;51.320;-0.580;2023-08-06T13:01:49;2.08;;;1.33;;
69991;SDS011;57332;51.320;-0.580;2023-08-06T13:04:16;2.13;;;1.10;;
69991;SDS011;57332;51.320;-0.580;2023-08-06T13:06:48;2.28;;;1.13;;
69991;SDS011;57332;51.320;-0.580;2023-08-06T13:09:15;1.38;;;0.90;;
69991;SDS011;57332;51.320;-0.580;2023-08-06T13:11:42;1.88;;;1.00;;
69991;SDS011;57332;51.320;-0.580;2023-08-06T13:14:13;1.63;;;1.00;;
69991;SDS011;57332;51.320;-0.580;2023-08-06T13:16:41;2.08;;;0.85;;
69991;SDS011;57332;51.320;-0.580;2023-08-06T13:19:09;1.10;;;0.80;;
69991;SDS011;57332;51.320;-0.580;2023-08-06T13:24:08;1.73;;;0.80;;
69991;SDS011;57332;51.320;-0.580;2023-08-06T13:26:35;2.85;;;1.02;;
69991;SDS011;57332;51.320;-0.580;2023-08-06T13:29:02;2.47;;;1.20;;
69991;SDS011;57332;51.320;-0.580;2023-08-06T13:31:29;1.67;;;0.90;;
69991;SDS011;57332;51.320;-0.580;2023-08-06T13:33:57;1.95;;;1.00;;
69991;SDS011;57332;51.320;-0.580;2023-08-06T13:36:26;2.75;;;1.30;;
69991;SDS011;57332;51.320;-0.580;2023-08-06T13:38:53;2.08;;;1.05;;
69991;SDS011;57332;51.320;-0.580;2023-08-06T13:41:20;2.47;;;0.90;;
69991;SDS011;57332;51.320;-0.580;2023-08-06T13:43:47;1.58;;;0.90;;
69991;SDS011;57332;51.320;-0.580;2023-08-06T13:46:14;2.40;;;1.10;;
69991;SDS011;57332;51.320;-0.580;2023-08-06T13:48:45;3.97;;;1.20;;
69991;SDS011;57332;51.320;-0.580;2023-08-06T13:51:13;2.38;;;1.10;;
69991;SDS011;57332;51.320;-0.580;2023-08-06T13:53:40;2.47;;;1.10;;
69991;SDS011;57332;51.320;-0.580;2023-08-06T13:56:08;2.05;;;1.35;;
69991;SDS011;57332;51.320;-0.580;2023-08-06T13:58:37;3.28;;;1.17;;
69991;SDS011;57332;51.320;-0.580;2023-08-06T14:01:04;2.83;;;1.20;;
69991;SDS011;57332;51.320;-0.580;2023-08-06T14:03:31;2.03;;;1.10;;
69991;SDS011;57332;51.320;-0.580;2023-08-06T14:05:58;2.53;;;1.20;;
69991;SDS011;57332;51.320;-0.580;2023-08-06T14:08:25;2.38;;;1.33;;
69991;SDS011;57332;51.320;-0.580;2023-08-06T14:10:52;1.83;;;1.10;;
69991;SDS011;57332;51.320;-0.580;2023-08-06T14:13:21;1.77;;;1.00;;
69991;SDS011;57332;51.320;-0.580;2023-08-06T14:15:48;1.67;;;0.90;;
69991;SDS011;57332;51.320;-0.580;2023-08-06T14:18:15;1.98;;;1.10;;
69991;SDS011;57332;51.320;-0.580;2023-08-06T14:20:43;2.35;;;1.45;;
69991;SDS011;57332;51.320;-0.580;2023-08-06T14:23:10;2.00;;;1.10;;
69991;SDS011;57332;51.320;-0.580;2023-08-06T14:25:37;1.75;;;0.80;;
69991;SDS011;57332;51.320;-0.580;2023-08-06T14:28:05;2.00;;;1.10;;
69991;SDS011;57332;51.320;-0.580;2023-08-06T14:30:33;1.88;;;1.17;;
69991;SDS011;57332;51.320;-0.580;2023-08-06T14:33:01;1.25;;;0.80;;
69991;SDS011;57332;51.320;-0.580;2023-08-06T14:35:47;2.10;;;1.00;;
69991;SDS011;57332;51.320;-0.580;2023-08-06T14:38:14;1.90;;;0.90;;
69991;SDS011;57332;51.320;-0.580;2023-08-06T14:40:41;1.42;;;0.80;;
69991;SDS011;57332;51.320;-0.580;2023-08-06T14:43:08;2.45;;;1.00;;
69991;SDS011;57332;51.320;-0.580;2023-08-06T14:45:38;4.15;;;1.00;;
69991;SDS011;57332;51.320;-0.580;2023-08-06T14:48:06;2.40;;;1.00;;
69991;SDS011;57332;51.320;-0.580;2023-08-06T14:50:33;1.63;;;1.10;;
69991;SDS011;57332;51.320;-0.580;2023-08-06T14:53:00;1.88;;;0.73;;
69991;SDS011;57332;51.320;-0.580;2023-08-06T14:55:31;3.45;;;1.10;;
69991;SDS011;57332;51.320;-0.580;2023-08-06T14:58:00;2.33;;;1.20;;